| Date | Time | Temp. (oF) | Dew Point (oF) | Rel. Hum. (%) | Press. (in.) | Wind Dir. | Wind Speed (mph) | Hourly Rainfall (in.) |
|
|---|---|---|---|---|---|---|---|---|---|
| 1 | 06/12 | 00:00 | 77 | 72 | 85 | 30.06 | S | 7 | 0.00 |
| 2 | 06/11 | 23:00 | 78 | 72 | 84 | 30.05 | S | 11 | 0.00 |
| 3 | 06/11 | 22:00 | 79 | 73 | 84 | 30.04 | S | 4 | 0.00 |
| 4 | 06/11 | 21:00 | 80 | 75 | 85 | 30.04 | SSE | 4 | 0.00 |
| 5 | 06/11 | 20:00 | 82 | 76 | 84 | 30.03 | SSE | 4 | 0.00 |
| 6 | 06/11 | 19:00 | 83 | 76 | 82 | 30.02 | SSE | 10 | 0.00 |
| 7 | 06/11 | 18:00 | 85 | 77 | 78 | 30.00 | S | 10 | 0.00 |
| 8 | 06/11 | 17:00 | 86 | 77 | 75 | 30.00 | S | 8 | 0.00 |
| 9 | 06/11 | 16:00 | 88 | 76 | 70 | 30.01 | SW | 4 | 0.00 |
| 10 | 06/11 | 15:00 | 87 | 75 | 70 | 30.03 | S | 10 | 0.00 |
| 11 | 06/11 | 14:00 | 87 | 76 | 71 | 30.04 | SSE | 7 | 0.00 |
| 12 | 06/11 | 13:00 | 86 | 75 | 72 | 30.05 | S | 10 | 0.00 |
| 13 | 06/11 | 12:00 | 85 | 76 | 76 | 30.07 | WSW | 5 | 0.00 |
| 14 | 06/11 | 11:00 | 83 | 76 | 81 | 30.08 | SW | 1 | 0.00 |
| 15 | 06/11 | 10:00 | 80 | 75 | 87 | 30.09 | SSW | 6 | 0.00 |
| 16 | 06/11 | 09:00 | 76 | 73 | 93 | 30.10 | S | 4 | 0.00 |
| 17 | 06/11 | 08:00 | 75 | 74 | 97 | 30.10 | S | 6 | 0.00 |
| 18 | 06/11 | 07:00 | 73 | 72 | 100 | 30.09 | SSE | 2 | 0.00 |
| 19 | 06/11 | 06:00 | 72 | 72 | 100 | 30.08 | S | 3 | 0.00 |
| 20 | 06/11 | 05:00 | 73 | 72 | 99 | 30.07 | S | 3 | 0.00 |
| 21 | 06/11 | 04:00 | 73 | 72 | 97 | 30.06 | SSE | 2 | 0.00 |
| 22 | 06/11 | 03:00 | 74 | 72 | 94 | 30.06 | SSW | 5 | 0.00 |
| 23 | 06/11 | 02:00 | 75 | 71 | 90 | 30.08 | SSE | 4 | 0.00 |
| 24 | 06/11 | 01:00 | 75 | 71 | 89 | 30.08 | S | 4 | 0.00 |